Canterbury, United Kingdom
Current Conditions -  °F | °C
As of 1:20 PM on Friday 24 Oct 2014 (Local Time) from EGMD Reporting Station
Light Rain Light Rain  
Wind Chill: 61°   Ceiling: 500
Heat Index: 61°   Visibility: 3mi
Dew Point: 61°   Wind: 17mph
Humidity: 100%   Direction: 210°SSW
Pressure: 29.97"   Gusts: NA
Location:  51.28°N, 1.08°E
Report Text: EGMD 241220Z 21015KT 5000 -RADZ BKN005 16/16 Q1015
Loading
Personal Weather Stations






























Interactive Weather Map
Tropical Storm Tracking
New forecast layout! Learn more

10-Day Weather Forecast

Advertisements
Track Severe Weather on mobile